Time;durP1;ratioP1;P1;durP2;ratioP2;P2;SDS_P1;SDS_P2;PMS_P1;PMS_P2;Temp;Humidity;BMP_temperature;BMP_pressure;BME280_temperature;BME280_humidity;BME280_pressure;Samples;Min_cycle;Max_cycle;Signal;HPM_P1;HPM_P2
2023/09/12 00:00:02;;;;;;;;;;;;;;;18.78;100;101395.8;;;;-79
2023/09/12 00:09:51;;;;;;;;;;;;;;;18.62;100;101397;;;;-81
2023/09/12 00:14:39;;;;;;;;;;;;;;;18.54;100;101386.9;;;;-80
2023/09/12 00:19:41;;;;;;;;;;;;;;;18.45;100;101379;;;;-80
2023/09/12 00:23:43;;;;;;;102.6;39.8;;;;;;;;;;;;;-78
2023/09/12 00:24:44;;;;;;;;;;;;;;;18.32;100;101370.5;;;;-79
2023/09/12 00:29:39;;;;;;;;;;;;;;;18.31;100;101374.9;;;;-79
2023/09/12 00:34:50;;;;;;;;;;;;;;;18.26;100;101367.1;;;;-81
2023/09/12 00:39:52;;;;;;;;;;;;;;;;;;;;;
2023/09/12 00:44:57;;;;;;;;;;;;;;;18.14;100;101368.8;;;;-81
2023/09/12 00:53:55;;;;;;;;;;;;;;;18.04;100;101364.6;;;;-78
2023/09/12 00:54:36;;;;;;;189.4;54.9;;;;;;;;;;;;;-78
2023/09/12 00:58:38;;;;;;;;;;;;;;;17.96;100;101365.3;;;;-80
2023/09/12 01:03:39;;;;;;;;;;;;;;;17.8;100;101368.4;;;;-80
2023/09/12 01:09:04;;;;;;;;;;;;;;;17.69;100;101363.6;;;;-81
2023/09/12 01:13:23;;;;;;;;;;;;;;;17.65;100;101359.3;;;;-79
2023/09/12 01:23:48;;;;;;;;;;;;;;;;;;;;;
2023/09/12 01:24:17;;;;;;;240.4;58.6;;;;;;;;;;;;;-80
2023/09/12 01:28:50;;;;;;;;;;;;;;;17.57;100;101349.7;;;;-80
2023/09/12 01:33:21;;;;;;;;;;;;;;;17.59;100;101348.6;;;;-81
2023/09/12 01:38:33;;;;;;;;;;;;;;;17.6;100;101353.7;;;;-79
2023/09/12 01:43:36;;;;;;;;;;;;;;;17.63;100;101354.8;;;;-80
2023/09/12 01:48:33;;;;;;;;;;;;;;;17.69;100;101350.8;;;;-80
2023/09/12 01:57:47;;;;;;;;;;;;;;;17.68;100;101337.5;;;;-81
2023/09/12 02:02:41;;;;;;;;;;;;;;;17.67;100;101352.8;;;;-83
2023/09/12 02:07:42;;;;;;;;;;;;;;;17.64;100;101349.2;;;;-82
2023/09/12 02:12:41;;;;;;;;;;;;;;;17.58;100;101363.5;;;;-83
2023/09/12 02:17:40;;;;;;;;;;;;;;;17.53;100;101363.1;;;;-81
2023/09/12 02:22:42;;;;;;;;;;;;;;;17.49;100;101359.2;;;;-82
2023/09/12 02:23:38;;;;;;;292.3;54.8;;;;;;;;;;;;;-81
2023/09/12 02:27:51;;;;;;;;;;;;;;;17.45;100;101355.6;;;;-83
2023/09/12 02:32:49;;;;;;;;;;;;;;;17.43;100;101345.5;;;;-82
2023/09/12 02:37:42;;;;;;;;;;;;;;;17.4;100;101347;;;;-81
2023/09/12 02:47:46;;;;;;;;;;;;;;;17.35;100;101356;;;;-81
2023/09/12 02:52:43;;;;;;;;;;;;;;;17.39;100;101354.1;;;;-83
2023/09/12 02:53:43;;;;;;;384.9;70.3;;;;;;;;;;;;;-83
2023/09/12 02:57:47;;;;;;;;;;;;;;;17.41;100;101347.5;;;;-85
2023/09/12 03:02:49;;;;;;;;;;;;;;;17.4;100;101338.9;;;;-83
2023/09/12 03:07:43;;;;;;;;;;;;;;;17.41;100;101337;;;;-82
2023/09/12 03:12:47;;;;;;;;;;;;;;;17.42;100;101336.4;;;;-84
2023/09/12 03:17:45;;;;;;;;;;;;;;;17.37;100;101346.9;;;;-83
2023/09/12 03:22:45;;;;;;;;;;;;;;;17.34;100;101345.3;;;;-83
2023/09/12 03:23:42;;;;;;;374.3;66.5;;;;;;;;;;;;;-82
2023/09/12 03:27:44;;;;;;;;;;;;;;;17.31;100;101345.2;;;;-84
2023/09/12 03:32:43;;;;;;;;;;;;;;;17.3;100;101338.5;;;;-82
2023/09/12 03:37:44;;;;;;;;;;;;;;;17.27;100;101338.7;;;;-83
2023/09/12 03:42:40;;;;;;;;;;;;;;;17.29;100;101339.6;;;;-84
2023/09/12 03:47:51;;;;;;;;;;;;;;;17.36;100;101332.9;;;;-82
2023/09/12 03:52:40;;;;;;;;;;;;;;;17.36;100;101340.3;;;;-83
2023/09/12 03:53:47;;;;;;;388.5;74.1;;;;;;;;;;;;;-83
2023/09/12 03:57:41;;;;;;;;;;;;;;;17.34;100;101345.5;;;;-84
2023/09/12 04:02:41;;;;;;;;;;;;;;;17.32;100;101348.3;;;;-83
2023/09/12 04:07:43;;;;;;;;;;;;;;;17.33;100;101353.3;;;;-82
2023/09/12 04:12:40;;;;;;;;;;;;;;;17.44;100;101356.5;;;;-81
2023/09/12 04:17:48;;;;;;;;;;;;;;;17.5;100;101350;;;;-84
2023/09/12 04:22:41;;;;;;;;;;;;;;;17.51;100;101346.8;;;;-84
2023/09/12 04:23:52;;;;;;;425.6;80.9;;;;;;;;;;;;;-82
2023/09/12 04:27:49;;;;;;;;;;;;;;;17.49;100;101344.7;;;;-84
2023/09/12 04:32:41;;;;;;;;;;;;;;;17.51;100;101330.8;;;;-82
2023/09/12 04:37:41;;;;;;;;;;;;;;;17.46;100;101319.6;;;;-82
2023/09/12 04:42:43;;;;;;;;;;;;;;;17.42;100;101335.1;;;;-85
2023/09/12 04:47:41;;;;;;;;;;;;;;;17.41;100;101323.8;;;;-83
2023/09/12 04:52:45;;;;;;;;;;;;;;;17.44;100;101325.1;;;;-83
2023/09/12 04:53:52;;;;;;;391.2;72.2;;;;;;;;;;;;;-83
2023/09/12 04:57:41;;;;;;;;;;;;;;;17.51;100;101330.8;;;;-83
2023/09/12 05:02:41;;;;;;;;;;;;;;;17.56;100;101329.8;;;;-82
2023/09/12 05:07:46;;;;;;;;;;;;;;;17.56;100;101332.6;;;;-84
2023/09/12 05:15:49;;;;;;;;;;;;;;;17.55;100;101329.3;;;;-80
2023/09/12 05:20:49;;;;;;;;;;;;;;;;;;;;;
2023/09/12 05:39:20;;;;;;;;;;;;;;;17.58;100;101329.3;;;;-83
2023/09/12 05:44:18;;;;;;;;;;;;;;;17.63;100;101332.8;;;;-83
2023/09/12 05:49:22;;;;;;;;;;;;;;;17.69;100;101336.1;;;;-82
2023/09/12 05:53:56;;;;;;;273;60.2;;;;;;;;;;;;;-81
2023/09/12 05:54:20;;;;;;;;;;;;;;;17.77;100;101337.6;;;;-82
2023/09/12 05:59:21;;;;;;;;;;;;;;;17.82;100;101341.2;;;;-82
2023/09/12 06:04:20;;;;;;;;;;;;;;;17.95;100;101353.5;;;;-84
2023/09/12 06:09:19;;;;;;;;;;;;;;;18.06;100;101359.3;;;;-83
2023/09/12 06:14:22;;;;;;;;;;;;;;;18.1;100;101350.1;;;;-84
2023/09/12 06:19:19;;;;;;;;;;;;;;;18.17;100;101348.8;;;;-82
2023/09/12 06:24:10;;;;;;;218;50.7;;;;;;;;;;;;;-86
2023/09/12 06:24:29;;;;;;;;;;;;;;;18.11;100;101311.6;;;;-82
2023/09/12 06:29:35;;;;;;;;;;;;;;;18.4;100;101352.8;;;;-84
2023/09/12 06:34:24;;;;;;;;;;;;;;;18.36;100;101341.5;;;;-82
2023/09/12 06:39:22;;;;;;;;;;;;;;;18.58;100;101364;;;;-82
2023/09/12 06:44:25;;;;;;;;;;;;;;;18.61;100;101361.6;;;;-82
2023/09/12 06:49:23;;;;;;;;;;;;;;;18.64;100;101369.5;;;;-84
2023/09/12 06:54:14;;;;;;;147.8;38.1;;;;;;;;;;;;;-82
2023/09/12 06:54:35;;;;;;;;;;;;;;;18.57;100;101341.7;;;;-83
2023/09/12 06:59:23;;;;;;;;;;;;;;;18.74;100;101378.6;;;;-83
2023/09/12 07:04:25;;;;;;;;;;;;;;;18.78;100;101385.8;;;;-81
2023/09/12 07:09:23;;;;;;;;;;;;;;;18.89;100;101386.7;;;;-84
2023/09/12 07:14:25;;;;;;;;;;;;;;;19.18;100;101383.3;;;;-82
2023/09/12 07:19:36;;;;;;;;;;;;;;;19.21;100;101378.3;;;;-82
2023/09/12 07:24:05;;;;;;;81.1;30.8;;;;;;;;;;;;;-83
2023/09/12 07:24:22;;;;;;;;;;;;;;;19.31;100;101369.6;;;;-83
2023/09/12 07:29:23;;;;;;;;;;;;;;;19.49;100;101374.6;;;;-85
2023/09/12 07:34:31;;;;;;;;;;;;;;;19.67;100;101374.4;;;;-82
2023/09/12 07:39:22;;;;;;;;;;;;;;;19.89;100;101385;;;;-82
2023/09/12 07:44:20;;;;;;;;;;;;;;;19.94;100;101386.1;;;;-83
2023/09/12 07:49:25;;;;;;;;;;;;;;;20.01;100;101401.4;;;;-84
2023/09/12 07:54:07;;;;;;;57.4;25.4;;;;;;;;;;;;;-83
2023/09/12 07:54:20;;;;;;;;;;;;;;;20.06;100;101393.1;;;;-81
2023/09/12 07:59:27;;;;;;;;;;;;;;;20.34;100;101405.1;;;;-84
2023/09/12 08:04:21;;;;;;;;;;;;;;;20.48;100;101412;;;;-83
2023/09/12 08:09:25;;;;;;;;;;;;;;;20.6;100;101419.2;;;;-82
2023/09/12 08:14:33;;;;;;;;;;;;;;;21.11;100;101422.6;;;;-84
2023/09/12 08:24:50;;;;;;;;;;;;;;;20.74;100;101368.7;;;;-83
2023/09/12 08:29:24;;;;;;;;;;;;;;;21.33;100;101434;;;;-84
2023/09/12 08:34:35;;;;;;;;;;;;;;;21.56;100;101437.9;;;;-83
2023/09/12 08:39:45;;;;;;;;;;;;;;;21.62;100;101435.5;;;;-84
2023/09/12 08:44:24;;;;;;;;;;;;;;;21.78;99.17188;101437.4;;;;-84
2023/09/12 09:01:04;;;;;;;;;;;;;;;22.21;94.34766;101444.9;;;;-84
2023/09/12 09:06:07;;;;;;;;;;;;;;;22.74;92.53223;101441.3;;;;-83
2023/09/12 09:15:47;;;;;;;;;;;;;;;22.94;89.6123;101434.3;;;;-83
2023/09/12 09:24:33;;;;;;;37.9;18.4;;;;;;;;;;;;;-84
2023/09/12 09:25:56;;;;;;;;;;;;;;;23.14;88.01758;101427.2;;;;-84
2023/09/12 09:30:50;;;;;;;;;;;;;;;23.38;86.14355;101424.4;;;;-83
2023/09/12 09:40:54;;;;;;;;;;;;;;;;;;;;;
2023/09/12 09:46:06;;;;;;;;;;;;;;;23.86;84.46875;101428.1;;;;-84
2023/09/12 09:50:57;;;;;;;;;;;;;;;23.87;84.4043;101428.9;;;;-86
2023/09/12 09:54:26;;;;;;;32.5;16.7;;;;;;;;;;;;;-85
2023/09/12 09:55:57;;;;;;;;;;;;;;;23.82;82.96973;101426.2;;;;-83
2023/09/12 10:00:48;;;;;;;;;;;;;;;23.61;85.45898;101432.8;;;;-86
2023/09/12 10:05:52;;;;;;;;;;;;;;;23.43;89.28027;101432.8;;;;-82
2023/09/12 10:10:50;;;;;;;;;;;;;;;23.33;90.14258;101436;;;;-82
2023/09/12 10:15:45;;;;;;;;;;;;;;;23.32;90.52734;101437.8;;;;-79
2023/09/12 10:20:45;;;;;;;;;;;;;;;23.23;90.09082;101445.1;;;;-79
2023/09/12 10:24:26;;;;;;;33.6;17.1;;;;;;;;;;;;;-79
2023/09/12 10:25:47;;;;;;;;;;;;;;;23.41;91.44434;101451;;;;-78
2023/09/12 10:30:42;;;;;;;;;;;;;;;23.94;90.13965;101443.5;;;;-80
2023/09/12 10:35:41;;;;;;;;;;;;;;;24.17;84.62988;101448.3;;;;-79
2023/09/12 10:40:41;;;;;;;;;;;;;;;24.22;86.34766;101449.1;;;;-80
2023/09/12 10:45:40;;;;;;;;;;;;;;;24.29;83.96777;101442.2;;;;-80
2023/09/12 10:50:44;;;;;;;;;;;;;;;24.24;85.19043;101434.1;;;;-81
2023/09/12 10:55:42;;;;;;;;;;;;;;;24.34;82.10547;101440.8;;;;-82
2023/09/12 11:00:52;;;;;;;;;;;;;;;24.48;80.12402;101443.7;;;;-81
2023/09/12 11:06:17;;;;;;;;;;;;;;;24.4;79.9248;101440;;;;-82
2023/09/12 11:10:50;;;;;;;;;;;;;;;24.48;78.27148;101437.7;;;;-80
2023/09/12 11:16:03;;;;;;;;;;;;;;;24.6;78.29395;101438.6;;;;-82
2023/09/12 11:20:58;;;;;;;;;;;;;;;24.88;77.58594;101430.4;;;;-85
2023/09/12 11:25:25;;;;;;;18.4;10.8;;;;;;;;;;;;;-84
2023/09/12 11:26:05;;;;;;;;;;;;;;;25.21;72.7627;101388.4;;;;-85
2023/09/12 11:31:06;;;;;;;;;;;;;;;25.55;73.83789;101438.3;;;;-85
2023/09/12 12:00:49;;;;;;;;;;;;;;;26.41;60.90918;101430.9;;;;-84
2023/09/12 12:15:51;;;;;;;;;;;;;;;26.67;60.18359;101419.5;;;;-83
2023/09/12 12:25:01;;;;;;;10.8;5;;;;;;;;;;;;;-83
2023/09/12 12:29:06;;;;;;;;;;;;;;;27.2;63.7998;101425.1;;;;-78
2023/09/12 12:33:59;;;;;;;;;;;;;;;27.03;64.54883;101420.5;;;;-79
2023/09/12 12:38:50;;;;;;;;;;;;;;;26.74;65.42969;101415.1;;;;-83
2023/09/12 12:43:53;;;;;;;;;;;;;;;26.62;64.6416;101413.8;;;;-82
2023/09/12 13:06:42;;;;;;;;;;;;;;;26.11;66.55859;101409;;;;-83
2023/09/12 13:11:42;;;;;;;;;;;;;;;26.25;65.85547;101402.3;;;;-85
2023/09/12 13:17:04;;;;;;;;;;;;;;;26.37;65.47949;101396.1;;;;-84
2023/09/12 13:21:57;;;;;;;;;;;;;;;26.47;63.36328;101392.6;;;;-86
2023/09/12 13:25:02;;;;;;;10.9;4.6;;;;;;;;;;;;;-84
2023/09/12 13:26:39;;;;;;;;;;;;;;;26.39;62.24414;101390.2;;;;-85
2023/09/12 13:40:54;;;;;;;;;;;;;;;26.02;63.98047;101386.1;;;;-85
2023/09/12 13:51:04;;;;;;;;;;;;;;;26.08;62.81348;101378.6;;;;-85
2023/09/12 13:55:13;;;;;;;9;3.8;;;;;;;;;;;;;-84
2023/09/12 13:55:56;;;;;;;;;;;;;;;25.94;62.6543;101332.1;;;;-86
2023/09/12 14:00:43;;;;;;;;;;;;;;;26.21;61.91992;101374.5;;;;-82
2023/09/12 14:05:46;;;;;;;;;;;;;;;26.04;61.59668;101373.4;;;;-84
2023/09/12 14:15:42;;;;;;;;;;;;;;;26.39;61.10352;101368.2;;;;-84
2023/09/12 14:35:32;;;;;;;;;;;;;;;26.91;58.17969;101384.2;;;;-80
2023/09/12 14:48:52;;;;;;;;;;;;;;;27.23;56.48633;101378.2;;;;-81
2023/09/12 14:53:44;;;;;;;;;;;;;;;27.31;58.20898;101383.8;;;;-81
2023/09/12 14:55:08;;;;;;;8.3;4.7;;;;;;;;;;;;;-81
2023/09/12 14:58:31;;;;;;;;;;;;;;;27.36;57.62598;101376.9;;;;-80
2023/09/12 15:03:48;;;;;;;;;;;;;;;27.09;58.40137;101373.4;;;;-82
2023/09/12 15:08:37;;;;;;;;;;;;;;;26.82;57.58105;101374.5;;;;-82
2023/09/12 15:13:31;;;;;;;;;;;;;;;26.66;58.03418;101377.5;;;;-81
2023/09/12 15:18:45;;;;;;;;;;;;;;;26.99;58.79102;101362.8;;;;-80
2023/09/12 15:25:16;;;;;;;9.3;4.5;;;;;;;;;;;;;-79
2023/09/12 15:33:59;;;;;;;;;;;;;;;26.8;59.35742;101354;;;;-79
2023/09/12 15:39:02;;;;;;;;;;;;;;;;;;;;;
2023/09/12 15:51:38;;;;;;;;;;;;;;;25.97;61.05859;101340.2;;;;-85
2023/09/12 15:55:20;;;;;;;7.7;4.3;;;;;;;;;;;;;-84
2023/09/12 15:56:43;;;;;;;;;;;;;;;26.09;62.08691;101340.3;;;;-86
2023/09/12 16:01:43;;;;;;;;;;;;;;;26.24;61.60156;101352.4;;;;-86
2023/09/12 16:06:47;;;;;;;;;;;;;;;;;;;;;
2023/09/12 16:11:44;;;;;;;;;;;;;;;25.77;62.45801;101351;;;;-85
2023/09/12 16:16:37;;;;;;;;;;;;;;;25.52;63.73535;101346.5;;;;-83
2023/09/12 16:21:39;;;;;;;;;;;;;;;25.41;64.3877;101343.3;;;;-85
2023/09/12 16:25:30;;;;;;;7.2;3.7;;;;;;;;;;;;;-83
2023/09/12 16:26:52;;;;;;;;;;;;;;;25.22;64.58008;101346.5;;;;-83
2023/09/12 16:31:59;;;;;;;;;;;;;;;24.99;64.79883;101343.8;;;;-84
2023/09/12 16:36:54;;;;;;;;;;;;;;;24.86;66.07813;101345.2;;;;-83
2023/09/12 16:46:49;;;;;;;;;;;;;;;24.74;67.23047;101349.7;;;;-84
2023/09/12 16:55:21;;;;;;;10.2;5;;;;;;;;;;;;;-80
2023/09/12 16:57:13;;;;;;;;;;;;;;;24.56;68.77441;101354.5;;;;-79
2023/09/12 17:02:28;;;;;;;;;;;;;;;24.39;69.87207;101365.6;;;;-82
2023/09/12 17:07:18;;;;;;;;;;;;;;;24.39;70.38574;101370.9;;;;-79
2023/09/12 17:55:53;;;;;;;7;3.7;;;;;;;;;;;;;-85
2023/09/12 17:56:41;;;;;;;;;;;;;;;23.19;74.42188;101352;;;;-83
2023/09/12 19:26:14;;;;;;;6.6;3.9;;;;;;;;;;;;;-82
2023/09/12 19:27:41;;;;;;;;;;;;;;;21.61;85.98438;101443.8;;;;-81
2023/09/12 19:32:45;;;;;;;;;;;;;;;21.56;86.71289;101450.8;;;;-81
2023/09/12 19:37:42;;;;;;;;;;;;;;;21.55;85.29395;101445.8;;;;-83
2023/09/12 19:52:32;;;;;;;;;;;;;;;21.37;87.97656;101439.9;;;;-81
2023/09/12 19:56:07;;;;;;;6.5;3.7;;;;;;;;;;;;;-82
2023/09/12 19:57:31;;;;;;;;;;;;;;;21.29;88.19922;101444.7;;;;-80
2023/09/12 20:16:37;;;;;;;;;;;;;;;20.94;94.52344;101441.8;;;;-79
2023/09/12 20:25:55;;;;;;;9.4;5;;;;;;;;;;;;;-81
2023/09/12 20:32:51;;;;;;;;;;;;;;;20.26;100;101431.9;;;;-82
2023/09/12 20:37:46;;;;;;;;;;;;;;;20.14;100;101429.8;;;;-82
2023/09/12 20:42:56;;;;;;;;;;;;;;;20.04;100;101422;;;;-79
2023/09/12 20:48:02;;;;;;;;;;;;;;;19.95;100;101418.3;;;;-81
2023/09/12 20:53:17;;;;;;;;;;;;;;;;;;;;;
2023/09/12 20:56:02;;;;;;;8.3;5;;;;;;;;;;;;;-81
2023/09/12 20:58:06;;;;;;;;;;;;;;;19.77;100;101411.5;;;;-82
2023/09/12 21:15:39;;;;;;;;;;;;;;;19.69;100;101413.8;;;;-80
2023/09/12 21:20:39;;;;;;;;;;;;;;;19.71;100;101419.9;;;;-78
2023/09/12 21:25:36;;;;;;;;;;;;;;;19.76;100;101423.4;;;;-79
2023/09/12 21:26:01;;;;;;;10.4;5.5;;;;;;;;;;;;;-78
2023/09/12 21:30:48;;;;;;;;;;;;;;;19.83;100;101421.1;;;;-79
2023/09/12 21:35:49;;;;;;;;;;;;;;;19.84;100;101418.6;;;;-79
2023/09/12 21:45:38;;;;;;;;;;;;;;;19.78;100;101421.6;;;;-78
2023/09/12 21:50:36;;;;;;;;;;;;;;;19.8;100;101417.4;;;;-77
2023/09/12 21:55:38;;;;;;;;;;;;;;;19.78;100;101416.5;;;;-79
2023/09/12 21:55:56;;;;;;;6.4;3.7;;;;;;;;;;;;;-76
2023/09/12 22:00:39;;;;;;;;;;;;;;;19.74;100;101413;;;;-78
2023/09/12 22:05:38;;;;;;;;;;;;;;;19.72;100;101414.5;;;;-78
2023/09/12 22:10:43;;;;;;;;;;;;;;;19.71;100;101415.2;;;;-79
2023/09/12 22:18:25;;;;;;;;;;;;;;;19.68;100;101411.1;;;;-76
2023/09/12 22:23:15;;;;;;;;;;;;;;;19.66;100;101408.4;;;;-78
2023/09/12 22:25:59;;;;;;;6.4;3.7;;;;;;;;;;;;;-79
2023/09/12 22:28:17;;;;;;;;;;;;;;;19.64;100;101410.2;;;;-78
2023/09/12 22:33:15;;;;;;;;;;;;;;;19.66;100;101412.4;;;;-79
2023/09/12 22:38:23;;;;;;;;;;;;;;;19.64;100;101414.9;;;;-80
2023/09/12 22:43:15;;;;;;;;;;;;;;;19.62;100;101411.4;;;;-79
2023/09/12 22:48:21;;;;;;;;;;;;;;;19.59;100;101413.6;;;;-81
2023/09/12 22:53:39;;;;;;;;;;;;;;;;;;;;;
2023/09/12 22:56:20;;;;;;;5.7;3.2;;;;;;;;;;;;;-78
2023/09/12 23:03:29;;;;;;;;;;;;;;;19.52;100;101417.5;;;;-80
2023/09/12 23:08:31;;;;;;;;;;;;;;;19.51;100;101417.6;;;;-81
2023/09/12 23:20:59;;;;;;;;;;;;;;;19.48;100;101409.5;;;;-82
2023/09/12 23:31:07;;;;;;;;;;;;;;;19.47;100;101412.3;;;;-81
2023/09/12 23:35:58;;;;;;;;;;;;;;;19.46;100;101401.1;;;;-81
2023/09/12 23:48:57;;;;;;;;;;;;;;;19.4;100;101399.1;;;;-79
2023/09/12 23:53:45;;;;;;;;;;;;;;;19.34;100;101394.3;;;;-81
